Salzburg Airport LOWS

Flugplatz Daten

Name: Salzburg Airport

Ident: LOWS

Lat: 47,79330063

Long: 13,00430012

Platzhöhe: 1411 ft

IataCode: SZG

City: Salzburg

Metar

2021/10/25 18:20
LOWS 251820Z VRB01KT CAVOK 05/04 Q1022 NOSIG

Taf

2021/10/25 18:21
TAF LOWS 251715Z 2518/2618 15003KT CAVOK TX13/2613Z TN03/2604Z
TEMPO 2520/2606 1200 BCFG SCT002
BECMG 2609/2611 34005KT 9999 SCT040 BKN060 PROB40
TEMPO 2613/2618 -RA

Webcams

Hangar 7 Hangar Vorfeld Vorfeld Panorama Vorfeld 2
Gewünschte Webcam nicht vorhanden? Dann fügen Sie eine hinzu. Sie wird dann so schnell wie möglich freigeschaltet
Url: Title: